sensor_id;sensor_type;location;lat;lon;timestamp;temperature;humidity
3190;DHT22;1606;51.946;10.558;2022-10-04T00:02:26;16.10;99.90
3190;DHT22;1606;51.946;10.558;2022-10-04T00:04:58;16.20;99.90
3190;DHT22;1606;51.946;10.558;2022-10-04T00:07:32;16.20;99.90
3190;DHT22;1606;51.946;10.558;2022-10-04T00:10:03;16.20;99.90
3190;DHT22;1606;51.946;10.558;2022-10-04T00:12:35;16.00;99.90
3190;DHT22;1606;51.946;10.558;2022-10-04T00:15:16;16.10;99.90
3190;DHT22;1606;51.946;10.558;2022-10-04T00:17:59;16.10;99.90
3190;DHT22;1606;51.946;10.558;2022-10-04T00:20:59;16.00;99.90
3190;DHT22;1606;51.946;10.558;2022-10-04T00:23:40;16.00;99.90
3190;DHT22;1606;51.946;10.558;2022-10-04T00:29:31;16.00;99.90
3190;DHT22;1606;51.946;10.558;2022-10-04T00:32:33;15.90;99.90
3190;DHT22;1606;51.946;10.558;2022-10-04T00:35:48;15.90;99.90
3190;DHT22;1606;51.946;10.558;2022-10-04T00:38:16;15.90;99.90
3190;DHT22;1606;51.946;10.558;2022-10-04T00:40:56;15.80;99.90
3190;DHT22;1606;51.946;10.558;2022-10-04T00:43:30;15.80;99.90
3190;DHT22;1606;51.946;10.558;2022-10-04T00:46:03;15.70;99.90
3190;DHT22;1606;51.946;10.558;2022-10-04T00:48:39;15.60;99.90
3190;DHT22;1606;51.946;10.558;2022-10-04T00:51:18;15.50;99.90
3190;DHT22;1606;51.946;10.558;2022-10-04T00:53:54;15.30;99.90
3190;DHT22;1606;51.946;10.558;2022-10-04T00:56:30;15.10;99.90
3190;DHT22;1606;51.946;10.558;2022-10-04T00:59:15;15.00;99.90
3190;DHT22;1606;51.946;10.558;2022-10-04T01:01:47;15.00;99.90
3190;DHT22;1606;51.946;10.558;2022-10-04T01:04:26;15.00;99.90
3190;DHT22;1606;51.946;10.558;2022-10-04T01:06:59;14.90;99.90
3190;DHT22;1606;51.946;10.558;2022-10-04T01:09:30;14.80;99.90
3190;DHT22;1606;51.946;10.558;2022-10-04T01:12:03;14.70;99.90
3190;DHT22;1606;51.946;10.558;2022-10-04T01:14:41;14.70;99.90
3190;DHT22;1606;51.946;10.558;2022-10-04T01:17:13;14.60;99.90
3190;DHT22;1606;51.946;10.558;2022-10-04T01:19:50;14.50;99.90
3190;DHT22;1606;51.946;10.558;2022-10-04T01:22:36;14.60;99.90
3190;DHT22;1606;51.946;10.558;2022-10-04T01:25:04;14.80;99.90
3190;DHT22;1606;51.946;10.558;2022-10-04T01:27:35;14.80;99.90
3190;DHT22;1606;51.946;10.558;2022-10-04T01:30:05;14.80;99.90
3190;DHT22;1606;51.946;10.558;2022-10-04T01:32:36;14.80;99.90
3190;DHT22;1606;51.946;10.558;2022-10-04T01:35:06;14.70;99.90
3190;DHT22;1606;51.946;10.558;2022-10-04T01:37:36;14.70;99.90
3190;DHT22;1606;51.946;10.558;2022-10-04T01:40:07;14.60;99.90
3190;DHT22;1606;51.946;10.558;2022-10-04T01:42:40;14.60;99.90
3190;DHT22;1606;51.946;10.558;2022-10-04T01:45:14;14.60;99.90
3190;DHT22;1606;51.946;10.558;2022-10-04T01:47:47;14.60;99.90
3190;DHT22;1606;51.946;10.558;2022-10-04T01:50:21;14.50;99.90
3190;DHT22;1606;51.946;10.558;2022-10-04T01:52:54;14.50;99.90
3190;DHT22;1606;51.946;10.558;2022-10-04T01:55:26;14.60;99.90
3190;DHT22;1606;51.946;10.558;2022-10-04T01:57:58;14.70;99.90
3190;DHT22;1606;51.946;10.558;2022-10-04T02:00:27;14.70;99.90
3190;DHT22;1606;51.946;10.558;2022-10-04T02:02:58;14.70;99.90
3190;DHT22;1606;51.946;10.558;2022-10-04T02:05:29;14.80;99.90
3190;DHT22;1606;51.946;10.558;2022-10-04T02:08:03;14.90;99.90
3190;DHT22;1606;51.946;10.558;2022-10-04T02:10:33;14.90;99.90
3190;DHT22;1606;51.946;10.558;2022-10-04T02:13:11;15.10;99.90
3190;DHT22;1606;51.946;10.558;2022-10-04T02:15:41;15.00;99.90
3190;DHT22;1606;51.946;10.558;2022-10-04T02:18:12;14.90;99.90
3190;DHT22;1606;51.946;10.558;2022-10-04T02:20:41;14.90;99.90
3190;DHT22;1606;51.946;10.558;2022-10-04T02:23:11;15.00;99.90
3190;DHT22;1606;51.946;10.558;2022-10-04T02:25:39;15.00;99.90
3190;DHT22;1606;51.946;10.558;2022-10-04T02:28:09;14.80;99.90
3190;DHT22;1606;51.946;10.558;2022-10-04T02:30:41;15.00;99.90
3190;DHT22;1606;51.946;10.558;2022-10-04T02:33:30;15.10;99.90
3190;DHT22;1606;51.946;10.558;2022-10-04T02:35:58;15.20;99.90
3190;DHT22;1606;51.946;10.558;2022-10-04T02:38:33;15.20;99.90
3190;DHT22;1606;51.946;10.558;2022-10-04T02:41:05;15.20;99.90
3190;DHT22;1606;51.946;10.558;2022-10-04T02:43:41;15.40;99.90
3190;DHT22;1606;51.946;10.558;2022-10-04T02:46:13;15.40;99.90
3190;DHT22;1606;51.946;10.558;2022-10-04T02:48:46;15.30;99.90
3190;DHT22;1606;51.946;10.558;2022-10-04T02:51:18;15.20;99.90
3190;DHT22;1606;51.946;10.558;2022-10-04T02:53:55;15.10;99.90
3190;DHT22;1606;51.946;10.558;2022-10-04T02:56:30;15.20;99.90
3190;DHT22;1606;51.946;10.558;2022-10-04T02:59:00;15.30;99.90
3190;DHT22;1606;51.946;10.558;2022-10-04T03:01:40;15.30;99.90
3190;DHT22;1606;51.946;10.558;2022-10-04T03:04:11;15.30;99.90
3190;DHT22;1606;51.946;10.558;2022-10-04T03:06:42;15.40;99.90
3190;DHT22;1606;51.946;10.558;2022-10-04T03:09:13;15.50;99.90
3190;DHT22;1606;51.946;10.558;2022-10-04T03:11:42;15.30;99.90
3190;DHT22;1606;51.946;10.558;2022-10-04T03:14:13;15.10;99.90
3190;DHT22;1606;51.946;10.558;2022-10-04T03:16:43;15.00;99.90
3190;DHT22;1606;51.946;10.558;2022-10-04T03:19:14;14.90;99.90
3190;DHT22;1606;51.946;10.558;2022-10-04T03:21:45;14.80;99.90
3190;DHT22;1606;51.946;10.558;2022-10-04T03:24:19;14.80;99.90
3190;DHT22;1606;51.946;10.558;2022-10-04T03:26:51;14.90;99.90
3190;DHT22;1606;51.946;10.558;2022-10-04T03:29:22;14.90;99.90
3190;DHT22;1606;51.946;10.558;2022-10-04T03:31:52;14.80;99.90
3190;DHT22;1606;51.946;10.558;2022-10-04T03:34:24;14.70;99.90
3190;DHT22;1606;51.946;10.558;2022-10-04T03:36:53;14.80;99.90
3190;DHT22;1606;51.946;10.558;2022-10-04T03:39:30;14.90;99.90
3190;DHT22;1606;51.946;10.558;2022-10-04T03:42:03;14.90;99.90
3190;DHT22;1606;51.946;10.558;2022-10-04T03:44:32;15.00;99.90
3190;DHT22;1606;51.946;10.558;2022-10-04T03:47:05;15.10;99.90
3190;DHT22;1606;51.946;10.558;2022-10-04T03:49:35;15.10;99.90
3190;DHT22;1606;51.946;10.558;2022-10-04T03:52:04;15.00;99.90
3190;DHT22;1606;51.946;10.558;2022-10-04T03:54:35;14.90;99.90
3190;DHT22;1606;51.946;10.558;2022-10-04T03:57:05;15.00;99.90
3190;DHT22;1606;51.946;10.558;2022-10-04T03:59:34;15.10;99.90
3190;DHT22;1606;51.946;10.558;2022-10-04T04:02:09;15.10;99.90
3190;DHT22;1606;51.946;10.558;2022-10-04T04:04:44;15.10;99.90
3190;DHT22;1606;51.946;10.558;2022-10-04T04:07:19;15.10;99.90
3190;DHT22;1606;51.946;10.558;2022-10-04T04:09:51;15.20;99.90
3190;DHT22;1606;51.946;10.558;2022-10-04T04:12:24;15.20;99.90
3190;DHT22;1606;51.946;10.558;2022-10-04T04:14:53;15.10;99.90
3190;DHT22;1606;51.946;10.558;2022-10-04T04:17:36;15.00;99.90
3190;DHT22;1606;51.946;10.558;2022-10-04T04:20:16;14.90;99.90
3190;DHT22;1606;51.946;10.558;2022-10-04T04:22:54;14.70;99.90
3190;DHT22;1606;51.946;10.558;2022-10-04T04:25:26;14.80;99.90
3190;DHT22;1606;51.946;10.558;2022-10-04T04:28:00;14.80;99.90
3190;DHT22;1606;51.946;10.558;2022-10-04T04:30:30;14.90;99.90
3190;DHT22;1606;51.946;10.558;2022-10-04T04:33:08;15.00;99.90
3190;DHT22;1606;51.946;10.558;2022-10-04T04:35:36;15.00;99.90
3190;DHT22;1606;51.946;10.558;2022-10-04T04:38:12;15.10;99.90
3190;DHT22;1606;51.946;10.558;2022-10-04T04:40:42;15.10;99.90
3190;DHT22;1606;51.946;10.558;2022-10-04T04:43:14;15.00;99.90
3190;DHT22;1606;51.946;10.558;2022-10-04T04:45:44;15.10;99.90
3190;DHT22;1606;51.946;10.558;2022-10-04T04:48:35;15.10;99.90
3190;DHT22;1606;51.946;10.558;2022-10-04T04:51:04;15.20;99.90
3190;DHT22;1606;51.946;10.558;2022-10-04T04:53:32;15.10;99.90
3190;DHT22;1606;51.946;10.558;2022-10-04T04:56:02;15.10;99.90
3190;DHT22;1606;51.946;10.558;2022-10-04T04:58:40;15.20;99.90
3190;DHT22;1606;51.946;10.558;2022-10-04T05:01:16;15.20;99.90
3190;DHT22;1606;51.946;10.558;2022-10-04T05:03:59;15.20;99.90
3190;DHT22;1606;51.946;10.558;2022-10-04T05:06:29;15.30;99.90
3190;DHT22;1606;51.946;10.558;2022-10-04T05:08:58;15.20;99.90
3190;DHT22;1606;51.946;10.558;2022-10-04T05:11:32;15.10;99.90
3190;DHT22;1606;51.946;10.558;2022-10-04T05:14:04;15.30;99.90
3190;DHT22;1606;51.946;10.558;2022-10-04T05:16:37;15.30;99.90
3190;DHT22;1606;51.946;10.558;2022-10-04T05:19:12;15.20;99.90
3190;DHT22;1606;51.946;10.558;2022-10-04T05:21:43;15.10;99.90
3190;DHT22;1606;51.946;10.558;2022-10-04T05:24:16;15.10;99.90
3190;DHT22;1606;51.946;10.558;2022-10-04T05:26:48;15.00;99.90
3190;DHT22;1606;51.946;10.558;2022-10-04T05:29:19;15.00;99.90
3190;DHT22;1606;51.946;10.558;2022-10-04T05:31:50;14.90;99.90
3190;DHT22;1606;51.946;10.558;2022-10-04T05:34:23;14.90;99.90
3190;DHT22;1606;51.946;10.558;2022-10-04T05:37:02;14.90;99.90
3190;DHT22;1606;51.946;10.558;2022-10-04T05:39:38;14.80;99.90
3190;DHT22;1606;51.946;10.558;2022-10-04T05:42:14;14.80;99.90
3190;DHT22;1606;51.946;10.558;2022-10-04T05:44:48;14.70;99.90
3190;DHT22;1606;51.946;10.558;2022-10-04T05:47:18;14.50;99.90
3190;DHT22;1606;51.946;10.558;2022-10-04T05:49:51;14.60;99.90
3190;DHT22;1606;51.946;10.558;2022-10-04T05:52:28;14.40;99.90
3190;DHT22;1606;51.946;10.558;2022-10-04T05:55:27;14.50;99.90
3190;DHT22;1606;51.946;10.558;2022-10-04T05:58:20;14.20;99.90
3190;DHT22;1606;51.946;10.558;2022-10-04T06:01:07;14.40;99.90
3190;DHT22;1606;51.946;10.558;2022-10-04T06:03:53;14.50;99.90
3190;DHT22;1606;51.946;10.558;2022-10-04T06:06:32;14.50;99.90
3190;DHT22;1606;51.946;10.558;2022-10-04T06:09:12;14.60;99.90
3190;DHT22;1606;51.946;10.558;2022-10-04T06:11:50;14.60;99.90
3190;DHT22;1606;51.946;10.558;2022-10-04T06:14:39;14.60;99.90
3190;DHT22;1606;51.946;10.558;2022-10-04T06:17:33;14.70;99.90
3190;DHT22;1606;51.946;10.558;2022-10-04T06:22:59;14.70;99.90
3190;DHT22;1606;51.946;10.558;2022-10-04T06:25:35;14.80;99.90
3190;DHT22;1606;51.946;10.558;2022-10-04T06:28:12;14.60;99.90
3190;DHT22;1606;51.946;10.558;2022-10-04T06:31:03;14.80;99.90
3190;DHT22;1606;51.946;10.558;2022-10-04T06:33:48;14.90;99.90
3190;DHT22;1606;51.946;10.558;2022-10-04T06:39:37;15.10;99.90
3190;DHT22;1606;51.946;10.558;2022-10-04T06:42:32;15.10;99.90
3190;DHT22;1606;51.946;10.558;2022-10-04T06:45:34;15.20;99.90
3190;DHT22;1606;51.946;10.558;2022-10-04T06:48:24;15.20;99.90
3190;DHT22;1606;51.946;10.558;2022-10-04T06:51:01;15.30;99.90
3190;DHT22;1606;51.946;10.558;2022-10-04T06:53:42;15.20;99.90
3190;DHT22;1606;51.946;10.558;2022-10-04T06:56:25;15.20;99.90
3190;DHT22;1606;51.946;10.558;2022-10-04T06:59:18;15.30;99.90
3190;DHT22;1606;51.946;10.558;2022-10-04T07:01:52;15.40;99.90
3190;DHT22;1606;51.946;10.558;2022-10-04T07:04:32;15.50;99.90
3190;DHT22;1606;51.946;10.558;2022-10-04T07:07:28;15.50;99.90
3190;DHT22;1606;51.946;10.558;2022-10-04T07:10:13;15.40;99.90
3190;DHT22;1606;51.946;10.558;2022-10-04T07:12:51;15.50;99.90
3190;DHT22;1606;51.946;10.558;2022-10-04T07:15:23;15.50;99.90
3190;DHT22;1606;51.946;10.558;2022-10-04T07:17:55;15.40;99.90
3190;DHT22;1606;51.946;10.558;2022-10-04T07:20:28;15.50;99.90
3190;DHT22;1606;51.946;10.558;2022-10-04T07:23:01;15.50;99.90
3190;DHT22;1606;51.946;10.558;2022-10-04T07:25:33;15.50;99.90
3190;DHT22;1606;51.946;10.558;2022-10-04T07:28:09;15.50;99.90
3190;DHT22;1606;51.946;10.558;2022-10-04T07:30:59;15.60;99.90
3190;DHT22;1606;51.946;10.558;2022-10-04T07:33:32;15.70;99.90
3190;DHT22;1606;51.946;10.558;2022-10-04T07:36:06;15.90;99.90
3190;DHT22;1606;51.946;10.558;2022-10-04T07:38:37;15.90;99.90
3190;DHT22;1606;51.946;10.558;2022-10-04T07:41:11;15.80;99.90
3190;DHT22;1606;51.946;10.558;2022-10-04T07:43:48;16.00;99.90
3190;DHT22;1606;51.946;10.558;2022-10-04T07:46:36;15.80;99.90
3190;DHT22;1606;51.946;10.558;2022-10-04T07:49:12;15.90;99.90
3190;DHT22;1606;51.946;10.558;2022-10-04T07:51:58;16.10;99.90
3190;DHT22;1606;51.946;10.558;2022-10-04T07:54:36;16.20;99.90
3190;DHT22;1606;51.946;10.558;2022-10-04T07:57:13;16.40;99.90
3190;DHT22;1606;51.946;10.558;2022-10-04T07:59:52;16.30;99.90
3190;DHT22;1606;51.946;10.558;2022-10-04T08:02:32;16.40;99.90
3190;DHT22;1606;51.946;10.558;2022-10-04T08:05:14;16.60;99.90
3190;DHT22;1606;51.946;10.558;2022-10-04T08:07:59;16.60;99.90
3190;DHT22;1606;51.946;10.558;2022-10-04T08:10:38;16.60;99.90
3190;DHT22;1606;51.946;10.558;2022-10-04T08:13:14;16.60;99.90
3190;DHT22;1606;51.946;10.558;2022-10-04T08:15:49;16.50;99.90
3190;DHT22;1606;51.946;10.558;2022-10-04T08:18:33;16.60;99.90
3190;DHT22;1606;51.946;10.558;2022-10-04T08:21:06;16.70;99.90
3190;DHT22;1606;51.946;10.558;2022-10-04T08:23:47;16.60;99.90
3190;DHT22;1606;51.946;10.558;2022-10-04T08:26:35;16.80;99.90
3190;DHT22;1606;51.946;10.558;2022-10-04T08:29:24;17.00;99.90
3190;DHT22;1606;51.946;10.558;2022-10-04T08:32:22;17.00;99.90
3190;DHT22;1606;51.946;10.558;2022-10-04T08:35:21;16.90;99.90
3190;DHT22;1606;51.946;10.558;2022-10-04T08:38:05;16.90;99.90
3190;DHT22;1606;51.946;10.558;2022-10-04T08:41:18;16.80;99.90
3190;DHT22;1606;51.946;10.558;2022-10-04T08:47:10;16.90;99.90
3190;DHT22;1606;51.946;10.558;2022-10-04T08:56:02;17.00;99.90
3190;DHT22;1606;51.946;10.558;2022-10-04T09:02:05;17.40;99.90
3190;DHT22;1606;51.946;10.558;2022-10-04T09:05:04;17.40;99.90
3190;DHT22;1606;51.946;10.558;2022-10-04T09:08:11;17.70;99.90
3190;DHT22;1606;51.946;10.558;2022-10-04T09:11:03;17.90;99.90
3190;DHT22;1606;51.946;10.558;2022-10-04T09:13:41;17.80;99.90
3190;DHT22;1606;51.946;10.558;2022-10-04T09:16:14;18.00;99.90
3190;DHT22;1606;51.946;10.558;2022-10-04T09:19:11;18.00;99.90
3190;DHT22;1606;51.946;10.558;2022-10-04T09:22:08;17.90;99.90
3190;DHT22;1606;51.946;10.558;2022-10-04T09:25:18;18.00;99.90
3190;DHT22;1606;51.946;10.558;2022-10-04T09:28:18;18.00;99.90
3190;DHT22;1606;51.946;10.558;2022-10-04T09:31:05;18.00;99.90
3190;DHT22;1606;51.946;10.558;2022-10-04T09:33:52;18.30;99.90
3190;DHT22;1606;51.946;10.558;2022-10-04T09:36:38;18.40;99.90
3190;DHT22;1606;51.946;10.558;2022-10-04T09:39:32;18.70;99.90
3190;DHT22;1606;51.946;10.558;2022-10-04T09:42:18;18.70;99.90
3190;DHT22;1606;51.946;10.558;2022-10-04T09:45:16;18.60;99.90
3190;DHT22;1606;51.946;10.558;2022-10-04T09:47:55;18.60;99.90
3190;DHT22;1606;51.946;10.558;2022-10-04T09:50:38;18.70;99.90
3190;DHT22;1606;51.946;10.558;2022-10-04T09:56:31;19.00;99.90
3190;DHT22;1606;51.946;10.558;2022-10-04T10:02:40;19.10;99.10
3190;DHT22;1606;51.946;10.558;2022-10-04T10:05:22;19.30;98.70
3190;DHT22;1606;51.946;10.558;2022-10-04T10:07:59;19.30;98.00
3190;DHT22;1606;51.946;10.558;2022-10-04T10:10:40;19.40;98.30
3190;DHT22;1606;51.946;10.558;2022-10-04T10:13:52;19.70;98.40
3190;DHT22;1606;51.946;10.558;2022-10-04T10:16:40;19.80;96.60
3190;DHT22;1606;51.946;10.558;2022-10-04T10:19:55;20.10;96.60
3190;DHT22;1606;51.946;10.558;2022-10-04T10:25:32;19.90;96.30
3190;DHT22;1606;51.946;10.558;2022-10-04T10:28:37;20.00;96.20
3190;DHT22;1606;51.946;10.558;2022-10-04T10:34:17;20.10;94.80
3190;DHT22;1606;51.946;10.558;2022-10-04T10:37:07;20.10;95.30
3190;DHT22;1606;51.946;10.558;2022-10-04T10:42:47;20.40;94.30
3190;DHT22;1606;51.946;10.558;2022-10-04T10:45:23;20.50;94.20
3190;DHT22;1606;51.946;10.558;2022-10-04T10:47:59;20.60;95.00
3190;DHT22;1606;51.946;10.558;2022-10-04T10:51:08;20.80;94.10
3190;DHT22;1606;51.946;10.558;2022-10-04T10:56:59;21.10;92.60
3190;DHT22;1606;51.946;10.558;2022-10-04T11:00:09;20.90;93.40
3190;DHT22;1606;51.946;10.558;2022-10-04T11:03:03;21.00;93.40
3190;DHT22;1606;51.946;10.558;2022-10-04T11:06:06;21.20;93.30
3190;DHT22;1606;51.946;10.558;2022-10-04T11:09:16;21.40;92.70
3190;DHT22;1606;51.946;10.558;2022-10-04T11:12:30;21.50;92.00
3190;DHT22;1606;51.946;10.558;2022-10-04T11:15:30;21.70;92.90
3190;DHT22;1606;51.946;10.558;2022-10-04T11:18:25;21.60;91.70
3190;DHT22;1606;51.946;10.558;2022-10-04T11:21:33;21.40;91.10
3190;DHT22;1606;51.946;10.558;2022-10-04T11:24:30;21.20;91.60
3190;DHT22;1606;51.946;10.558;2022-10-04T11:27:20;21.30;91.60
3190;DHT22;1606;51.946;10.558;2022-10-04T11:30:03;21.00;91.90
3190;DHT22;1606;51.946;10.558;2022-10-04T11:36:09;21.00;92.50
3190;DHT22;1606;51.946;10.558;2022-10-04T11:39:00;21.20;92.40
3190;DHT22;1606;51.946;10.558;2022-10-04T11:41:46;21.20;91.40
3190;DHT22;1606;51.946;10.558;2022-10-04T11:44:37;21.20;91.90
3190;DHT22;1606;51.946;10.558;2022-10-04T11:47:27;21.20;92.40
3190;DHT22;1606;51.946;10.558;2022-10-04T11:50:08;21.40;92.00
3190;DHT22;1606;51.946;10.558;2022-10-04T11:52:56;21.40;91.40
3190;DHT22;1606;51.946;10.558;2022-10-04T11:55:47;21.60;90.80
3190;DHT22;1606;51.946;10.558;2022-10-04T11:58:28;21.90;91.00
3190;DHT22;1606;51.946;10.558;2022-10-04T12:01:17;22.10;90.50
3190;DHT22;1606;51.946;10.558;2022-10-04T12:04:17;21.80;88.80
3190;DHT22;1606;51.946;10.558;2022-10-04T12:07:05;21.90;88.90
3190;DHT22;1606;51.946;10.558;2022-10-04T12:09:41;21.80;88.60
3190;DHT22;1606;51.946;10.558;2022-10-04T12:15:42;21.50;88.20
3190;DHT22;1606;51.946;10.558;2022-10-04T12:18:32;21.40;89.20
3190;DHT22;1606;51.946;10.558;2022-10-04T12:21:24;21.50;89.50
3190;DHT22;1606;51.946;10.558;2022-10-04T12:24:02;21.60;89.80
3190;DHT22;1606;51.946;10.558;2022-10-04T12:26:48;21.40;89.90
3190;DHT22;1606;51.946;10.558;2022-10-04T12:32:13;21.30;90.30
3190;DHT22;1606;51.946;10.558;2022-10-04T12:34:53;21.50;90.90
3190;DHT22;1606;51.946;10.558;2022-10-04T12:37:29;21.50;90.40
3190;DHT22;1606;51.946;10.558;2022-10-04T12:40:16;21.80;90.40
3190;DHT22;1606;51.946;10.558;2022-10-04T12:42:52;21.70;90.40
3190;DHT22;1606;51.946;10.558;2022-10-04T12:45:30;21.80;89.80
3190;DHT22;1606;51.946;10.558;2022-10-04T12:48:14;22.00;90.00
3190;DHT22;1606;51.946;10.558;2022-10-04T12:50:51;22.00;90.50
3190;DHT22;1606;51.946;10.558;2022-10-04T12:53:28;22.10;90.80
3190;DHT22;1606;51.946;10.558;2022-10-04T12:56:11;22.10;89.80
3190;DHT22;1606;51.946;10.558;2022-10-04T12:59:04;22.20;90.10
3190;DHT22;1606;51.946;10.558;2022-10-04T13:01:39;22.20;88.10
3190;DHT22;1606;51.946;10.558;2022-10-04T13:10:14;22.60;89.40
3190;DHT22;1606;51.946;10.558;2022-10-04T13:13:37;22.60;87.90
3190;DHT22;1606;51.946;10.558;2022-10-04T13:16:12;22.70;86.80
3190;DHT22;1606;51.946;10.558;2022-10-04T13:19:14;22.50;88.70
3190;DHT22;1606;51.946;10.558;2022-10-04T13:22:00;22.50;89.40
3190;DHT22;1606;51.946;10.558;2022-10-04T13:24:36;22.60;87.40
3190;DHT22;1606;51.946;10.558;2022-10-04T13:27:28;22.90;86.70
3190;DHT22;1606;51.946;10.558;2022-10-04T13:30:03;23.10;85.00
3190;DHT22;1606;51.946;10.558;2022-10-04T13:32:40;23.10;85.80
3190;DHT22;1606;51.946;10.558;2022-10-04T13:35:15;23.10;85.60
3190;DHT22;1606;51.946;10.558;2022-10-04T13:38:00;23.30;84.60
3190;DHT22;1606;51.946;10.558;2022-10-04T13:40:43;23.40;83.00
3190;DHT22;1606;51.946;10.558;2022-10-04T13:46:28;23.10;79.60
3190;DHT22;1606;51.946;10.558;2022-10-04T13:49:12;22.90;82.20
3190;DHT22;1606;51.946;10.558;2022-10-04T13:52:05;22.50;80.20
3190;DHT22;1606;51.946;10.558;2022-10-04T13:55:00;22.30;80.00
3190;DHT22;1606;51.946;10.558;2022-10-04T13:57:59;22.20;79.70
3190;DHT22;1606;51.946;10.558;2022-10-04T14:00:48;22.10;79.90
3190;DHT22;1606;51.946;10.558;2022-10-04T14:03:38;22.10;80.30
3190;DHT22;1606;51.946;10.558;2022-10-04T14:06:35;22.00;81.20
3190;DHT22;1606;51.946;10.558;2022-10-04T14:09:23;21.90;82.80
3190;DHT22;1606;51.946;10.558;2022-10-04T14:12:06;21.90;82.80
3190;DHT22;1606;51.946;10.558;2022-10-04T14:15:28;21.80;83.30
3190;DHT22;1606;51.946;10.558;2022-10-04T14:18:34;21.70;81.60
3190;DHT22;1606;51.946;10.558;2022-10-04T14:21:28;21.50;81.60
3190;DHT22;1606;51.946;10.558;2022-10-04T14:24:24;21.50;82.40
3190;DHT22;1606;51.946;10.558;2022-10-04T14:30:04;21.30;82.40
3190;DHT22;1606;51.946;10.558;2022-10-04T14:33:16;21.30;84.10
3190;DHT22;1606;51.946;10.558;2022-10-04T14:36:07;21.40;82.90
3190;DHT22;1606;51.946;10.558;2022-10-04T14:38:52;21.50;83.80
3190;DHT22;1606;51.946;10.558;2022-10-04T14:45:06;21.60;83.50
3190;DHT22;1606;51.946;10.558;2022-10-04T14:48:04;21.50;83.40
3190;DHT22;1606;51.946;10.558;2022-10-04T14:50:47;21.70;82.20
3190;DHT22;1606;51.946;10.558;2022-10-04T14:53:24;21.60;83.50
3190;DHT22;1606;51.946;10.558;2022-10-04T14:56:25;21.30;83.90
3190;DHT22;1606;51.946;10.558;2022-10-04T14:59:06;21.30;84.80
3190;DHT22;1606;51.946;10.558;2022-10-04T15:01:41;21.20;84.20
3190;DHT22;1606;51.946;10.558;2022-10-04T15:04:30;21.10;84.20
3190;DHT22;1606;51.946;10.558;2022-10-04T15:07:01;21.10;84.90
3190;DHT22;1606;51.946;10.558;2022-10-04T15:09:46;21.20;84.50
3190;DHT22;1606;51.946;10.558;2022-10-04T15:12:37;21.20;84.30
3190;DHT22;1606;51.946;10.558;2022-10-04T15:18:29;21.20;85.70
3190;DHT22;1606;51.946;10.558;2022-10-04T15:21:01;21.30;84.50
3190;DHT22;1606;51.946;10.558;2022-10-04T15:23:36;21.30;85.90
3190;DHT22;1606;51.946;10.558;2022-10-04T15:26:44;21.60;85.10
3190;DHT22;1606;51.946;10.558;2022-10-04T15:29:21;21.20;86.40
3190;DHT22;1606;51.946;10.558;2022-10-04T15:31:59;21.10;86.60
3190;DHT22;1606;51.946;10.558;2022-10-04T15:34:34;21.00;87.40
3190;DHT22;1606;51.946;10.558;2022-10-04T15:37:16;21.00;86.30
3190;DHT22;1606;51.946;10.558;2022-10-04T15:43:11;21.30;87.00
3190;DHT22;1606;51.946;10.558;2022-10-04T15:46:05;21.30;87.40
3190;DHT22;1606;51.946;10.558;2022-10-04T15:48:48;21.20;86.60
3190;DHT22;1606;51.946;10.558;2022-10-04T15:51:38;21.10;86.30
3190;DHT22;1606;51.946;10.558;2022-10-04T15:54:30;21.20;85.90
3190;DHT22;1606;51.946;10.558;2022-10-04T15:56:59;21.10;86.40
3190;DHT22;1606;51.946;10.558;2022-10-04T15:59:44;21.10;86.70
3190;DHT22;1606;51.946;10.558;2022-10-04T16:02:45;21.10;86.60
3190;DHT22;1606;51.946;10.558;2022-10-04T16:05:22;20.80;86.80
3190;DHT22;1606;51.946;10.558;2022-10-04T16:08:03;20.60;88.20
3190;DHT22;1606;51.946;10.558;2022-10-04T16:10:54;20.50;89.00
3190;DHT22;1606;51.946;10.558;2022-10-04T16:13:43;20.40;89.80
3190;DHT22;1606;51.946;10.558;2022-10-04T16:16:34;20.40;90.00
3190;DHT22;1606;51.946;10.558;2022-10-04T16:19:20;20.50;89.80
3190;DHT22;1606;51.946;10.558;2022-10-04T16:21:53;20.60;89.60
3190;DHT22;1606;51.946;10.558;2022-10-04T16:24:38;20.60;90.00
3190;DHT22;1606;51.946;10.558;2022-10-04T16:27:43;20.50;90.10
3190;DHT22;1606;51.946;10.558;2022-10-04T16:30:22;20.30;90.00
3190;DHT22;1606;51.946;10.558;2022-10-04T16:35:51;20.30;90.40
3190;DHT22;1606;51.946;10.558;2022-10-04T16:38:32;20.40;90.80
3190;DHT22;1606;51.946;10.558;2022-10-04T16:41:09;20.30;91.50
3190;DHT22;1606;51.946;10.558;2022-10-04T16:43:49;20.30;91.20
3190;DHT22;1606;51.946;10.558;2022-10-04T16:46:24;20.20;91.70
3190;DHT22;1606;51.946;10.558;2022-10-04T16:49:01;20.10;90.90
3190;DHT22;1606;51.946;10.558;2022-10-04T16:51:54;20.00;90.70
3190;DHT22;1606;51.946;10.558;2022-10-04T16:54:41;19.90;91.50
3190;DHT22;1606;51.946;10.558;2022-10-04T16:57:17;19.70;92.00
3190;DHT22;1606;51.946;10.558;2022-10-04T16:59:53;19.60;92.90
3190;DHT22;1606;51.946;10.558;2022-10-04T17:02:40;19.50;92.90
3190;DHT22;1606;51.946;10.558;2022-10-04T17:05:28;19.40;93.20
3190;DHT22;1606;51.946;10.558;2022-10-04T17:11:14;19.50;93.70
3190;DHT22;1606;51.946;10.558;2022-10-04T17:13:52;19.30;93.20
3190;DHT22;1606;51.946;10.558;2022-10-04T17:16:27;19.20;93.50
3190;DHT22;1606;51.946;10.558;2022-10-04T17:19:25;19.00;93.50
3190;DHT22;1606;51.946;10.558;2022-10-04T17:22:04;19.00;94.00
3190;DHT22;1606;51.946;10.558;2022-10-04T17:24:51;19.00;94.40
3190;DHT22;1606;51.946;10.558;2022-10-04T17:27:40;19.00;94.90
3190;DHT22;1606;51.946;10.558;2022-10-04T17:30:16;19.00;95.50
3190;DHT22;1606;51.946;10.558;2022-10-04T17:33:01;18.80;95.70
3190;DHT22;1606;51.946;10.558;2022-10-04T17:35:56;18.60;96.00
3190;DHT22;1606;51.946;10.558;2022-10-04T17:38:32;18.30;96.50
3190;DHT22;1606;51.946;10.558;2022-10-04T17:41:10;18.20;96.90
3190;DHT22;1606;51.946;10.558;2022-10-04T17:46:59;18.10;97.40
3190;DHT22;1606;51.946;10.558;2022-10-04T17:49:35;17.90;97.60
3190;DHT22;1606;51.946;10.558;2022-10-04T17:52:25;17.90;97.90
3190;DHT22;1606;51.946;10.558;2022-10-04T17:55:21;17.90;97.70
3190;DHT22;1606;51.946;10.558;2022-10-04T17:57:58;17.80;97.70
3190;DHT22;1606;51.946;10.558;2022-10-04T18:00:47;17.80;98.10
3190;DHT22;1606;51.946;10.558;2022-10-04T18:03:18;17.80;98.10
3190;DHT22;1606;51.946;10.558;2022-10-04T18:05:51;17.70;98.00
3190;DHT22;1606;51.946;10.558;2022-10-04T18:08:38;17.70;98.10
3190;DHT22;1606;51.946;10.558;2022-10-04T18:11:17;17.60;98.00
3190;DHT22;1606;51.946;10.558;2022-10-04T18:13:49;17.40;98.00
3190;DHT22;1606;51.946;10.558;2022-10-04T18:16:24;17.20;98.70
3190;DHT22;1606;51.946;10.558;2022-10-04T18:18:53;17.20;98.70
3190;DHT22;1606;51.946;10.558;2022-10-04T18:21:23;17.20;98.70
3190;DHT22;1606;51.946;10.558;2022-10-04T18:23:55;17.30;98.80
3190;DHT22;1606;51.946;10.558;2022-10-04T18:26:27;17.30;98.70
3190;DHT22;1606;51.946;10.558;2022-10-04T18:28:58;17.30;98.70
3190;DHT22;1606;51.946;10.558;2022-10-04T18:31:33;17.20;98.90
3190;DHT22;1606;51.946;10.558;2022-10-04T18:34:16;17.40;98.80
3190;DHT22;1606;51.946;10.558;2022-10-04T18:36:50;17.40;98.90